Historyczne dane pomiarowe

Dodano dane terminowe – wersja testowa.

Dane z okresu 1951-2019

Wersja bazy: 1.34 [2019-03-16, lista zmian], aktualizacja planowana na 2019-04-15

Dane meteo z obszaru Polski uzyskane na podstawie danych udostępnionych przez Instytut Meteorologii i Gospodarki Wodnej – Państwowy Instytut Badawczy.

 

Wybierz Datę:    

       

TemperaturaWilgotnośćWiatrCiśnienieOpadyŚniegCzas trwania zjawisk
 Stacja t tx tn tng RH VA  wxwx mslp ppp RRR   cm mm wxwxwxwxwxwxwx
1961-02-14 3.6 5.1 0.1 -1.6 97.5- 8.0 0.0---- 0.0------------
1961-02-15 3.4 5.1 0.0 -0.8 97.0- 5.3 0.0---- 0.0------------
1961-02-16 5.1 6.5 0.5 0.2 92.8- 8.0 3.3---- 0.0------------
1961-02-17 2.3 7.5 -1.0 3.2 88.8- 6.7 0.7---- 0.0------------
1961-02-18 2.6 12.4 -2.7- 92.3- 2.7 0.0---- 0.0------------
1961-02-19 4.0 5.3 1.6- 90.0- 8.0 1.0---- 0.0------------
1961-02-20 4.0 5.3 3.5- 87.8- 8.0 0.0---- 0.0------------
1961-02-21 1.7 8.2 -1.5- 82.3- 5.3 0.3---- 0.0------------
1961-02-22 -0.6 2.8 -4.3- 99.3- 8.0 1.0---- 0.0------------
1961-02-23 0.4 1.3 -0.8- 96.5- 8.0 1.3---- 0.0------------
1961-02-24 1.3 6.3 0.0- 90.3- 4.7 0.3---- 0.0------------
1961-02-25 0.6 4.0 -1.0- 87.5- 6.3 1.0---- 0.0------------
1961-02-26 1.7 9.0 -1.5- 84.0- 5.3 1.3---- 0.0------------
1961-02-27 6.8 11.2 -0.6- 84.0- 5.3 0.7---- 2.0------------
1961-02-28 7.6 12.9 3.8- 82.8- 8.0 5.0---- 2.9------------
1961-03-01 4.2 8.1 3.0- 85.5- 6.7 2.3---- 0.5------------
1961-03-02 3.6 5.0 0.8- 80.5- 8.0 2.3---- 2.5------------
1961-03-03 5.5 7.0 3.1- 94.0- 8.0 0.3---- 1.6------------
1961-03-04 4.8 9.3 2.6- 82.5- 5.3 0.7---- 0.0------------
1961-03-05 6.0 9.2 2.8- 82.3- 6.3 3.0---- 0.0------------
1961-03-06 4.1 7.7 2.8- 92.0- 5.3 2.0---- 0.0------------
1961-03-07 6.2 13.0 0.6- 81.0- 3.7 1.7---- 0.0------------
1961-03-08 5.6 11.7 -1.2- 84.8- 2.7 1.0---- 0.0------------
1961-03-09 7.3 14.9 1.5- 79.5- 1.3 2.0---- 0.0------------
1961-03-10 6.7 18.9 -2.1- 73.0- 2.0 0.3---- 0.0------------
1961-03-11 8.4 10.6 3.5- 83.0- 5.3 3.7---- 0.0------------
1961-03-12 10.3 14.1 6.8- 74.5- 8.0 7.0---- 0.8------------
1961-03-13 5.4 11.4 3.6- 74.0- 5.7 7.3---- 1.6------------
1961-03-14 8.0 9.4 3.5- 92.5- 8.0 1.7---- 2.0------------
1961-03-15 10.6 13.7 9.1- 70.3- 5.0 8.3---- 0.0------------
179.4 ms

 

Źródłem pochodzenia danych jest Instytut Meteorologii i Gospodarki Wodnej – Państwowy Instytut Badawczy. Dane Instytutu Meteorologii i Gospodarki Wodnej – Państwowego Instytutu Badawczego zostały przetworzone.

Dane źródłowe można odnaleźć na stronie https://dane.imgw.pl